createdAt,value
2018-01-16T00:19:22.467Z,96495.08
2018-01-16T00:39:56.809Z,96476.75
2018-01-16T01:00:33.005Z,96480.30
2018-01-16T01:21:08.277Z,96480.06
2018-01-16T01:41:45.714Z,96472.20
2018-01-16T02:02:20.658Z,96482.86
2018-01-16T02:22:55.015Z,96469.38
2018-01-16T02:43:27.481Z,96452.70
2018-01-16T03:04:01.252Z,96404.37
2018-01-16T03:24:37.139Z,96410.18
2018-01-16T03:45:12.718Z,96341.63
2018-01-16T04:05:45.840Z,96324.94
2018-01-16T04:26:21.110Z,96305.52
2018-01-16T04:46:54.537Z,96261.00
2018-01-16T05:07:29.805Z,96235.37
2018-01-16T05:28:03.856Z,96240.31
2018-01-16T05:48:37.537Z,96229.98
2018-01-16T06:09:11.318Z,96230.72
2018-01-16T06:29:47.831Z,96224.56
2018-01-16T06:50:21.033Z,96250.18
2018-01-16T07:10:56.264Z,96233.27
2018-01-16T07:31:30.258Z,96271.07
2018-01-16T07:52:06.447Z,96314.82
2018-01-16T08:12:40.796Z,96307.83
2018-01-16T08:33:12.994Z,96306.34
2018-01-16T08:53:51.924Z,96317.80
2018-01-16T08:56:20.319Z,96306.86
2018-01-16T08:58:48.601Z,96312.59
2018-01-16T09:01:16.861Z,96306.80
2018-01-16T09:03:45.120Z,96303.39
2018-01-16T09:06:13.411Z,96298.03
2018-01-16T09:08:41.687Z,96296.70
2018-01-16T09:11:09.966Z,96293.06
2018-01-16T09:13:38.236Z,96303.72
2018-01-16T09:16:06.541Z,96300.30
2018-01-16T09:18:35.224Z,96310.98
2018-01-16T09:21:03.915Z,96308.62
2018-01-16T09:23:32.206Z,96308.70
2018-01-16T09:26:00.470Z,96320.19
2018-01-16T09:28:28.732Z,96327.09
2018-01-16T09:30:57.518Z,96344.69
2018-01-16T09:33:25.798Z,96356.51
2018-01-16T09:35:54.497Z,96360.64
2018-01-16T09:38:23.196Z,96401.18
2018-01-16T09:40:51.865Z,96403.27
2018-01-16T09:43:20.525Z,96399.43
2018-01-16T09:45:48.858Z,96378.69
2018-01-16T09:48:17.157Z,96378.98
2018-01-16T09:50:45.449Z,96392.77
2018-01-16T09:53:14.486Z,96410.83
2018-01-16T09:55:42.757Z,96420.41
2018-01-16T09:58:11.157Z,96417.23
2018-01-16T10:00:39.413Z,96401.36
2018-01-16T10:03:07.714Z,96365.84
2018-01-16T10:05:35.980Z,96329.52
2018-01-16T10:08:04.261Z,96341.87
2018-01-16T10:10:32.516Z,96358.74
2018-01-16T10:13:00.783Z,96366.70
2018-01-16T10:15:29.070Z,96365.44
2018-01-16T10:17:57.348Z,96337.17
2018-01-16T10:20:25.635Z,96336.79
2018-01-16T10:22:53.907Z,96334.01
2018-01-16T10:25:22.155Z,96334.29
2018-01-16T10:27:51.275Z,96338.80
2018-01-16T10:30:19.531Z,96333.39
2018-01-16T10:32:48.574Z,96339.47
2018-01-16T10:35:16.851Z,96360.75
2018-01-16T10:37:45.135Z,96368.13
2018-01-16T10:40:13.404Z,96365.81
2018-01-16T10:42:41.675Z,96367.02
2018-01-16T10:45:09.930Z,96353.25
2018-01-16T10:47:38.200Z,96349.95
2018-01-16T10:50:07.258Z,96346.55
2018-01-16T10:52:35.543Z,96355.55
2018-01-16T10:55:03.814Z,96358.73
2018-01-16T10:57:32.109Z,96334.80
2018-01-16T11:00:00.380Z,96344.06
2018-01-16T11:02:28.672Z,96347.76
2018-01-16T11:04:56.945Z,96339.17
2018-01-16T11:07:25.209Z,96352.05
2018-01-16T11:09:53.512Z,96357.73
2018-01-16T11:12:21.771Z,96344.66
2018-01-16T11:14:50.062Z,96354.05
2018-01-16T11:17:19.103Z,96359.52
2018-01-16T11:19:47.383Z,96365.31
2018-01-16T11:22:15.680Z,96352.13
2018-01-16T11:24:43.939Z,96348.78
2018-01-16T11:27:12.244Z,96346.41
2018-01-16T11:29:40.510Z,96337.50
2018-01-16T11:32:08.781Z,96333.41
2018-01-16T11:34:37.048Z,96331.49
2018-01-16T11:37:05.337Z,96360.15
2018-01-16T11:39:33.655Z,96364.44
2018-01-16T11:42:01.980Z,96377.62
2018-01-16T11:44:30.245Z,96397.02
2018-01-16T11:46:58.522Z,96406.59
2018-01-16T11:49:26.795Z,96417.97
2018-01-16T11:51:56.140Z,96404.30
2018-01-16T11:54:24.395Z,96413.97
2018-01-16T11:56:52.671Z,96412.28
2018-01-16T11:59:20.952Z,96422.77
2018-01-16T12:01:49.205Z,96437.34
2018-01-16T12:04:17.526Z,96429.77
2018-01-16T12:06:45.800Z,96419.56
2018-01-16T12:09:14.057Z,96414.84
2018-01-16T12:11:43.128Z,96396.56
2018-01-16T12:14:12.145Z,96379.97
2018-01-16T12:16:40.417Z,96364.56
2018-01-16T12:19:08.671Z,96386.38
2018-01-16T12:21:37.719Z,96399.16
2018-01-16T12:24:05.991Z,96401.84
2018-01-16T12:26:34.276Z,96397.56
2018-01-16T12:29:02.834Z,96397.53
2018-01-16T12:31:31.136Z,96390.53
2018-01-16T12:33:59.394Z,96400.28
2018-01-16T12:36:27.715Z,96398.78
2018-01-16T12:38:56.002Z,96405.05
2018-01-16T12:41:24.547Z,96405.44
2018-01-16T12:43:52.827Z,96410.86
2018-01-16T12:46:21.128Z,96406.15
2018-01-16T12:48:49.416Z,96396.75
2018-01-16T12:51:17.720Z,96399.83
2018-01-16T12:53:46.772Z,96401.22
2018-01-16T12:56:15.023Z,96409.81
2018-01-16T12:58:43.308Z,96403.07
2018-01-16T13:01:11.583Z,96394.26
2018-01-16T13:03:39.852Z,96401.05
2018-01-16T13:06:08.140Z,96388.41
2018-01-16T13:08:36.405Z,96394.69
2018-01-16T13:11:04.692Z,96378.73
2018-01-16T13:13:33.827Z,96395.10
2018-01-16T13:16:02.151Z,96386.90
2018-01-16T13:18:30.435Z,96395.63
2018-01-16T13:20:58.691Z,96404.59
2018-01-16T13:26:36.795Z,96396.00
2018-01-16T13:29:05.079Z,96392.80
2018-01-16T13:31:33.636Z,96400.88
2018-01-16T13:34:01.946Z,96404.27
2018-01-16T13:36:30.605Z,96394.27
2018-01-16T13:38:58.911Z,96402.75
2018-01-16T13:41:27.156Z,96406.45
2018-01-16T13:43:55.452Z,96396.93
2018-01-16T13:46:23.726Z,96410.28
2018-01-16T13:48:51.996Z,96414.11
2018-01-16T13:51:20.280Z,96417.77
2018-01-16T13:53:48.559Z,96414.41
2018-01-16T13:56:16.865Z,96423.05
2018-01-16T13:58:45.254Z,96421.67
2018-01-16T14:01:13.497Z,96425.38
2018-01-16T14:03:42.193Z,96423.20
2018-01-16T14:06:10.868Z,96425.20
2018-01-16T14:08:39.177Z,96424.90
2018-01-16T14:11:07.461Z,96423.53
2018-01-16T14:13:35.718Z,96417.33
2018-01-16T14:16:04.384Z,96424.53
2018-01-16T14:18:32.684Z,96428.73
2018-01-16T14:21:01.772Z,96426.33
2018-01-16T14:23:30.036Z,96430.41
2018-01-16T14:25:58.324Z,96420.41
2018-01-16T14:28:27.368Z,96420.54
2018-01-16T14:30:55.643Z,96417.73
2018-01-16T14:33:24.670Z,96410.14
2018-01-16T14:35:52.976Z,96396.34
2018-01-16T14:38:21.619Z,96389.36
2018-01-16T14:40:50.345Z,96406.23
2018-01-16T14:43:19.036Z,96404.13
2018-01-16T14:45:47.304Z,96412.32
2018-01-16T14:48:16.088Z,96414.51
2018-01-16T14:50:44.365Z,96404.92
2018-01-16T14:53:12.621Z,96404.92
2018-01-16T14:55:40.925Z,96400.31
2018-01-16T14:58:09.629Z,96414.91
2018-01-16T15:00:38.324Z,96404.80
2018-01-16T15:03:06.605Z,96408.41
2018-01-16T15:05:34.920Z,96408.20
2018-01-16T15:08:03.197Z,96404.22
2018-01-16T15:10:32.284Z,96410.72
2018-01-16T15:13:03.533Z,96422.30
2018-01-16T15:15:33.804Z,96429.48
2018-01-16T15:18:02.177Z,96437.19
2018-01-16T15:20:30.563Z,96437.10
2018-01-16T15:22:58.950Z,96437.91
2018-01-16T15:25:27.732Z,96435.33
2018-01-16T15:27:56.033Z,96438.91
2018-01-16T15:30:24.366Z,96443.00
2018-01-16T15:32:52.801Z,96450.42
2018-01-16T15:35:21.144Z,96449.12
2018-01-16T15:37:49.540Z,96470.91
2018-01-16T15:40:17.938Z,96476.10
2018-01-16T15:42:47.207Z,96463.91
2018-01-16T15:45:15.601Z,96463.51
2018-01-16T15:47:43.980Z,96481.70
2018-01-16T15:50:12.357Z,96475.48
2018-01-16T15:52:40.752Z,96465.91
2018-01-16T15:55:09.092Z,96463.63
2018-01-16T15:57:37.500Z,96453.64
2018-01-16T16:00:05.854Z,96457.41
2018-01-16T16:02:34.261Z,96464.92
2018-01-16T16:05:06.008Z,96453.43
2018-01-16T16:07:34.424Z,96470.00
2018-01-16T16:10:04.600Z,96462.74
2018-01-16T16:12:33.001Z,96462.74
2018-01-16T16:15:01.410Z,96459.13
2018-01-16T16:17:29.807Z,96466.83
2018-01-16T16:19:59.092Z,96461.94
2018-01-16T16:22:27.419Z,96460.25
2018-01-16T16:24:55.798Z,96457.93
2018-01-16T16:27:26.061Z,96461.55
2018-01-16T16:29:54.420Z,96481.61
2018-01-16T16:32:22.800Z,96466.33
2018-01-16T16:34:51.241Z,96470.73
2018-01-16T16:37:20.464Z,96457.44
2018-01-16T16:39:48.873Z,96457.75
2018-01-16T16:42:17.252Z,96463.93
2018-01-16T16:44:47.504Z,96460.03
2018-01-16T16:47:16.768Z,96469.42
2018-01-16T16:49:45.150Z,96458.55
2018-01-16T16:52:13.869Z,96451.94
2018-01-16T16:54:42.214Z,96444.95
2018-01-16T16:57:10.637Z,96447.95
2018-01-16T16:59:39.940Z,96449.47
2018-01-16T17:02:09.231Z,96447.46
2018-01-16T17:04:39.429Z,96449.87
2018-01-16T17:07:07.816Z,96465.73
2018-01-16T17:09:36.217Z,96454.45
2018-01-16T17:12:04.685Z,96451.57
2018-01-16T17:14:33.000Z,96463.84
2018-01-16T17:17:02.324Z,96467.73
2018-01-16T17:19:30.700Z,96459.95
2018-01-16T17:22:01.170Z,96469.63
2018-01-16T17:24:31.513Z,96477.02
2018-01-16T17:27:00.987Z,96484.00
2018-01-16T17:29:33.088Z,96483.91
2018-01-16T17:32:01.463Z,96471.64
2018-01-16T17:34:29.947Z,96463.14
2018-01-16T17:36:58.292Z,96455.14
2018-01-16T17:39:26.622Z,96459.06
2018-01-16T17:41:55.978Z,96454.24
2018-01-16T17:44:26.464Z,96451.86
2018-01-16T17:46:55.726Z,96457.23
2018-01-16T17:49:24.123Z,96452.95
2018-01-16T17:51:52.494Z,96448.34
2018-01-16T17:54:20.842Z,96452.14
2018-01-16T17:56:49.266Z,96463.41
2018-01-16T17:59:17.604Z,96455.30
2018-01-16T18:01:45.859Z,96446.59
2018-01-16T18:04:14.180Z,96430.97
2018-01-16T18:06:42.449Z,96436.20
2018-01-16T18:09:10.760Z,96438.56
2018-01-16T18:14:36.268Z,96445.73
2018-01-16T18:17:04.574Z,96462.44
2018-01-16T18:19:32.837Z,96467.05
2018-01-16T18:22:01.115Z,96460.33
2018-01-16T18:27:26.267Z,96468.09
2018-01-16T18:29:55.333Z,96459.81
2018-01-16T18:32:23.613Z,96461.20
2018-01-16T18:34:51.933Z,96453.40
2018-01-16T18:37:20.211Z,96451.69
2018-01-16T18:39:48.506Z,96458.04
2018-01-16T18:42:16.948Z,96461.52
2018-01-16T18:44:45.268Z,96466.30
2018-01-16T18:47:13.556Z,96468.06
2018-01-16T18:49:41.913Z,96452.73
2018-01-16T18:52:10.219Z,96449.53
2018-01-16T18:54:38.513Z,96445.59
2018-01-16T18:57:07.494Z,96432.09
2018-01-16T18:59:35.788Z,96419.32
2018-01-16T19:02:04.112Z,96439.14
2018-01-16T19:04:36.539Z,96435.53
2018-01-16T19:07:04.853Z,96447.00
2018-01-16T19:09:33.242Z,96447.93
2018-01-16T19:12:02.266Z,96445.08
2018-01-16T19:14:30.585Z,96447.77
2018-01-16T19:16:58.904Z,96443.36
2018-01-16T19:19:27.249Z,96436.16
2018-01-16T19:21:55.910Z,96440.08
2018-01-16T19:24:24.281Z,96445.86
2018-01-16T19:26:53.000Z,96462.27
2018-01-16T19:29:21.536Z,96463.77
2018-01-16T19:31:49.828Z,96472.25
2018-01-16T19:34:18.879Z,96478.89
2018-01-16T19:36:47.165Z,96477.91
2018-01-16T19:39:16.243Z,96475.69
2018-01-16T19:41:46.602Z,96473.14
2018-01-16T19:44:14.885Z,96463.98
2018-01-16T19:46:43.173Z,96464.40
2018-01-16T19:49:11.474Z,96453.45
2018-01-16T19:51:39.788Z,96455.11
2018-01-16T19:54:08.858Z,96453.34
2018-01-16T19:56:37.159Z,96454.13
2018-01-16T19:59:05.675Z,96453.92
2018-01-16T20:01:33.942Z,96459.08
2018-01-16T20:04:03.167Z,96456.63
2018-01-16T20:06:31.439Z,96446.23
2018-01-16T20:08:59.762Z,96459.86
2018-01-16T20:11:28.033Z,96464.68
2018-01-16T20:13:56.312Z,96461.22
2018-01-16T20:16:24.581Z,96458.32
2018-01-16T20:18:52.963Z,96462.00
2018-01-16T20:21:21.293Z,96455.73
2018-01-16T20:23:49.571Z,96457.72
2018-01-16T20:26:17.861Z,96465.35
2018-01-16T20:28:47.029Z,96466.13
2018-01-16T20:31:16.103Z,96473.05
2018-01-16T20:33:44.387Z,96472.48
2018-01-16T20:36:12.652Z,96473.80
2018-01-16T20:38:40.944Z,96477.98
2018-01-16T20:41:09.611Z,96471.42
2018-01-16T20:43:38.376Z,96476.91
2018-01-16T20:46:06.681Z,96476.12
2018-01-16T20:48:35.348Z,96476.34
2018-01-16T20:51:03.599Z,96462.61
2018-01-16T20:53:31.897Z,96467.66
2018-01-16T20:56:00.184Z,96471.66
2018-01-16T20:58:28.471Z,96466.08
2018-01-16T21:00:57.607Z,96465.19
2018-01-16T21:03:26.654Z,96456.06
2018-01-16T21:05:54.940Z,96451.03
2018-01-16T21:08:23.196Z,96454.63
2018-01-16T21:10:51.509Z,96450.38
2018-01-16T21:13:19.801Z,96441.86
2018-01-16T21:15:48.092Z,96439.61
2018-01-16T21:18:16.389Z,96431.17
2018-01-16T21:20:45.836Z,96428.39
2018-01-16T21:23:14.146Z,96424.03
2018-01-16T21:25:42.413Z,96428.83
2018-01-16T21:28:10.677Z,96424.06
2018-01-16T21:30:38.966Z,96426.45
2018-01-16T21:33:07.270Z,96420.66
2018-01-16T21:35:36.772Z,96412.30
2018-01-16T21:38:05.803Z,96417.11
2018-01-16T21:40:34.126Z,96418.69
2018-01-16T21:43:02.442Z,96407.14
2018-01-16T21:45:30.731Z,96396.70
2018-01-16T21:47:59.035Z,96387.32
2018-01-16T21:50:27.319Z,96386.34
2018-01-16T21:52:55.590Z,96379.15
2018-01-16T21:55:23.889Z,96384.56
2018-01-16T21:57:52.144Z,96383.45
2018-01-16T22:00:20.468Z,96382.94
2018-01-16T22:02:48.782Z,96386.84
2018-01-16T22:05:17.112Z,96382.66
2018-01-16T22:07:45.398Z,96389.34
2018-01-16T22:10:13.702Z,96386.55
2018-01-16T22:12:42.033Z,96385.88
2018-01-16T22:15:10.340Z,96378.02
2018-01-16T22:17:39.814Z,96387.59
2018-01-16T22:20:08.804Z,96386.89
2018-01-16T22:22:37.101Z,96380.13
2018-01-16T22:25:05.377Z,96365.27
2018-01-16T22:27:33.673Z,96360.70
2018-01-16T22:30:05.218Z,96354.23
2018-01-16T22:32:33.507Z,96360.89
2018-01-16T22:35:02.604Z,96357.84
2018-01-16T22:37:30.918Z,96348.30
2018-01-16T22:39:59.175Z,96355.77
2018-01-16T22:42:27.931Z,96355.72
2018-01-16T22:44:56.188Z,96352.41
2018-01-16T22:47:24.461Z,96352.63
2018-01-16T22:49:52.742Z,96360.80
2018-01-16T22:52:21.004Z,96358.45
2018-01-16T22:54:49.320Z,96357.98
2018-01-16T22:57:17.577Z,96347.80
2018-01-16T22:59:46.277Z,96340.55
2018-01-16T23:02:14.571Z,96345.80
2018-01-16T23:04:43.347Z,96338.06
2018-01-16T23:07:11.677Z,96342.00
2018-01-16T23:09:39.946Z,96337.88
2018-01-16T23:12:08.993Z,96346.31
2018-01-16T23:14:38.060Z,96351.73
2018-01-16T23:17:06.762Z,96351.08
2018-01-16T23:19:35.035Z,96341.30
2018-01-16T23:22:03.316Z,96336.03
2018-01-16T23:24:31.609Z,96341.00
2018-01-16T23:26:59.924Z,96345.50
2018-01-16T23:29:28.944Z,96354.52
2018-01-16T23:31:57.230Z,96341.67
2018-01-16T23:34:25.511Z,96310.30
2018-01-16T23:36:53.767Z,96297.33
2018-01-16T23:39:22.047Z,96283.47
2018-01-16T23:41:50.350Z,96310.27
2018-01-16T23:44:18.669Z,96319.16
2018-01-16T23:46:46.964Z,96322.83
2018-01-16T23:49:15.995Z,96306.86
2018-01-16T23:51:44.282Z,96305.49
2018-01-16T23:54:12.616Z,96305.47
2018-01-16T23:56:41.264Z,96301.67
2018-01-16T23:59:09.791Z,96315.28
